Time;durP1;ratioP1;P1;durP2;ratioP2;P2;SDS_P1;SDS_P2;PMS_P1;PMS_P2;Temp;Humidity;BMP_temperature;BMP_pressure;BME280_temperature;BME280_humidity;BME280_pressure;Samples;Min_cycle;Max_cycle;Signal;HPM_P1;HPM_P2
2023/08/30 00:00:13;;;;;;;5.07;3.70;;;;;;;15.21;100.00;99442.91;5020681;28;20564;-68
2023/08/30 00:02:39;;;;;;;4.30;3.90;;;;;;;14.88;100.00;99443.94;5028512;28;20190;-67
2023/08/30 00:05:04;;;;;;;3.70;3.40;;;;;;;14.88;100.00;99446.53;5014486;28;20526;-67
2023/08/30 00:07:30;;;;;;;4.27;3.87;;;;;;;14.94;100.00;99451.22;5014494;28;20179;-68
2023/08/30 00:09:56;;;;;;;3.87;3.37;;;;;;;15.03;100.00;99447.84;5014729;28;20689;-67
2023/08/30 00:12:21;;;;;;;9.33;3.53;;;;;;;15.07;100.00;99451.00;5020088;28;20759;-68
2023/08/30 00:14:47;;;;;;;4.73;3.50;;;;;;;15.09;100.00;99444.75;5014154;28;20187;-68
2023/08/30 00:17:12;;;;;;;4.83;3.57;;;;;;;14.99;100.00;99451.66;5014743;28;20240;-68
2023/08/30 00:19:37;;;;;;;5.07;3.80;;;;;;;14.84;100.00;99444.19;5029539;28;20190;-69
2023/08/30 00:22:03;;;;;;;3.83;3.47;;;;;;;14.85;100.00;99448.44;5019768;28;20322;-68
2023/08/30 00:24:28;;;;;;;3.70;3.40;;;;;;;14.97;100.00;99449.19;5014059;28;20183;-68
2023/08/30 00:26:53;;;;;;;4.70;3.60;;;;;;;15.04;100.00;99448.69;5014624;28;20686;-67
2023/08/30 00:29:19;;;;;;;4.50;4.10;;;;;;;15.00;100.00;99445.53;5014544;28;20179;-67
2023/08/30 00:31:44;;;;;;;6.63;4.50;;;;;;;14.88;100.00;99446.53;5017028;28;20701;-68
2023/08/30 00:34:09;;;;;;;7.33;4.20;;;;;;;14.80;100.00;99452.38;5016238;28;20178;-67
2023/08/30 00:36:35;;;;;;;4.40;4.03;;;;;;;14.86;100.00;99457.03;5007483;28;20704;-68
2023/08/30 00:39:00;;;;;;;9.13;3.90;;;;;;;14.77;100.00;99447.44;5008861;28;20186;-68
2023/08/30 00:41:25;;;;;;;4.47;4.07;;;;;;;14.80;100.00;99445.41;5014906;28;20233;-67
2023/08/30 00:43:50;;;;;;;5.07;4.57;;;;;;;14.80;100.00;99445.41;5018883;28;20190;-68
2023/08/30 00:46:16;;;;;;;4.47;4.07;;;;;;;14.94;100.00;99440.84;5013688;28;20646;-67
2023/08/30 00:48:41;;;;;;;5.57;4.60;;;;;;;15.00;100.00;99437.75;5014203;28;20278;-68
2023/08/30 00:51:07;;;;;;;5.40;4.90;;;;;;;15.03;100.00;99437.47;5012263;28;20229;-67
2023/08/30 00:53:32;;;;;;;6.50;5.40;;;;;;;15.12;100.00;99435.88;5012765;28;20717;-67
2023/08/30 00:55:58;;;;;;;6.57;5.30;;;;;;;15.12;100.00;99441.06;5012018;28;20186;-68
2023/08/30 00:58:26;;;;;;;6.93;5.20;;;;;;;15.08;100.00;99430.16;5013973;28;20206;-67
2023/08/30 01:00:52;;;;;;;5.57;4.67;;;;;;;14.89;100.00;99432.66;5007491;28;20257;-67
2023/08/30 01:03:17;;;;;;;8.40;5.73;;;;;;;14.82;100.00;99434.91;5013128;28;20186;-67
2023/08/30 01:05:42;;;;;;;5.10;4.70;;;;;;;14.91;100.00;99425.56;5012621;28;20542;-67
2023/08/30 01:08:08;;;;;;;6.77;4.70;;;;;;;14.94;100.00;99420.94;5019762;28;20191;-68
2023/08/30 01:11:02;;;;;;;5.20;4.33;;;;;;;14.66;100.00;99419.81;4999111;28;20233;-67
2023/08/30 01:13:30;;;;;;;6.00;5.27;;;;;;;14.80;100.00;99416.94;5002205;28;20675;-68
2023/08/30 01:15:57;;;;;;;6.00;4.43;;;;;;;14.88;100.00;99411.09;5012959;28;20765;-68
2023/08/30 01:18:26;;;;;;;5.57;4.93;;;;;;;14.85;100.00;99407.00;5013274;28;20663;-67
2023/08/30 01:20:53;;;;;;;6.20;4.60;;;;;;;14.96;100.00;99410.47;5009842;28;20264;-67
2023/08/30 01:23:56;;;;;;;5.17;4.50;;;;;;;14.89;100.00;99404.97;5009799;28;20187;-67
2023/08/30 01:26:50;;;;;;;4.97;4.43;;;;;;;14.82;100.00;99396.06;5001094;28;20251;-67
2023/08/30 01:29:18;;;;;;;4.63;4.23;;;;;;;14.82;100.00;99396.91;5003055;28;20665;-67
2023/08/30 01:31:45;;;;;;;5.27;4.77;;;;;;;14.95;100.00;99391.50;5013069;28;20295;-67
2023/08/30 01:34:13;;;;;;;6.07;4.60;;;;;;;14.94;100.00;99384.69;4996478;28;20193;-67
2023/08/30 01:36:39;;;;;;;4.90;4.60;;;;;;;14.97;100.00;99386.19;5010750;28;20183;-67
2023/08/30 01:39:05;;;;;;;5.40;4.90;;;;;;;15.03;100.00;99382.28;5013193;28;20209;-67
2023/08/30 01:41:32;;;;;;;6.73;4.80;;;;;;;15.03;100.00;99382.28;5011369;28;20238;-68
2023/08/30 01:43:59;;;;;;;5.83;4.23;;;;;;;15.15;100.00;99387.22;5003396;28;20175;-68
2023/08/30 01:46:24;;;;;;;7.07;4.60;;;;;;;15.17;100.00;99381.94;5012648;28;20189;-67
2023/08/30 01:48:50;;;;;;;8.13;4.67;;;;;;;15.19;100.00;99381.81;5018821;28;20167;-67
2023/08/30 01:51:16;;;;;;;6.87;4.73;;;;;;;15.22;100.00;99379.78;5007732;28;20720;-67
2023/08/30 01:53:44;;;;;;;7.60;4.63;;;;;;;15.10;100.00;99376.44;5010183;28;20186;-67
2023/08/30 01:56:10;;;;;;;4.77;4.37;;;;;;;15.05;100.00;99375.22;5010950;28;20171;-67
2023/08/30 01:58:35;;;;;;;5.43;4.80;;;;;;;15.15;100.00;99376.88;5010956;28;20561;-66
2023/08/30 02:01:00;;;;;;;10.57;4.80;;;;;;;15.23;100.00;99385.75;5010568;28;20243;-66
2023/08/30 02:03:26;;;;;;;7.43;4.70;;;;;;;15.15;100.00;99387.22;5011534;28;20179;-66
2023/08/30 02:06:08;;;;;;;5.10;4.57;;;;;;;15.05;100.00;99393.34;5011884;28;20654;-66
2023/08/30 02:09:09;;;;;;;5.30;4.80;;;;;;;14.93;100.00;99392.59;5011695;28;20182;-66
2023/08/30 02:11:36;;;;;;;5.20;4.70;;;;;;;15.03;100.00;99400.41;5003799;28;20317;-66
2023/08/30 02:14:06;;;;;;;6.33;4.37;;;;;;;14.95;100.00;99398.47;5000714;28;20174;-67
2023/08/30 02:16:32;;;;;;;6.27;4.80;;;;;;;14.85;100.00;99393.25;5009392;28;20642;-66
2023/08/30 02:18:58;;;;;;;6.37;4.57;;;;;;;14.80;100.00;99392.81;5012611;28;20233;-67
2023/08/30 02:21:23;;;;;;;7.03;4.90;;;;;;;14.81;100.00;99397.03;5012441;28;20296;-67
2023/08/30 02:23:50;;;;;;;5.60;4.63;;;;;;;14.73;100.00;99394.28;5003928;28;20179;-67
2023/08/30 02:26:15;;;;;;;7.53;4.40;;;;;;;14.76;100.00;99394.00;5002315;28;20249;-68
2023/08/30 02:28:40;;;;;;;4.40;4.00;;;;;;;14.57;100.00;99386.94;5009253;28;20644;-67
2023/08/30 02:31:06;;;;;;;8.97;4.77;;;;;;;14.57;100.00;99384.34;5010492;28;20271;-68
2023/08/30 02:33:31;;;;;;;6.77;4.13;;;;;;;14.48;100.00;99388.50;5006731;28;20254;-68
2023/08/30 02:35:56;;;;;;;4.83;4.33;;;;;;;14.22;100.00;99385.47;5010396;28;20249;-68
2023/08/30 02:38:21;;;;;;;8.33;4.27;;;;;;;14.25;100.00;99386.03;5012073;28;20647;-68
2023/08/30 02:40:47;;;;;;;8.47;4.40;;;;;;;14.36;100.00;99391.16;5010337;28;20340;-68
2023/08/30 02:43:12;;;;;;;6.50;4.33;;;;;;;14.46;100.00;99403.31;5019410;28;20183;-68
2023/08/30 02:45:38;;;;;;;5.60;4.67;;;;;;;14.51;100.00;99393.41;5011409;28;20185;-68
2023/08/30 02:48:03;;;;;;;5.97;4.10;;;;;;;14.46;100.00;99393.81;5012082;28;20186;-68
2023/08/30 02:50:29;;;;;;;7.10;4.90;;;;;;;14.56;100.00;99393.03;5005985;28;20299;-66
2023/08/30 02:52:54;;;;;;;5.63;4.70;;;;;;;14.59;100.00;99391.03;5011700;28;20179;-66
2023/08/30 02:55:19;;;;;;;7.37;4.57;;;;;;;14.48;100.00;99380.75;5016235;28;20194;-67
2023/08/30 02:57:46;;;;;;;6.57;4.73;;;;;;;14.35;100.00;99386.09;5008859;28;20288;-68
2023/08/30 03:00:12;;;;;;;6.03;5.00;;;;;;;14.40;100.00;99381.38;5003078;28;20197;-67
2023/08/30 03:02:37;;;;;;;5.93;5.13;;;;;;;14.33;100.00;99385.41;5025637;28;20182;-67
2023/08/30 03:05:04;;;;;;;5.37;4.87;;;;;;;14.34;100.00;99381.88;5012387;28;20551;-67
2023/08/30 03:07:29;;;;;;;9.67;5.20;;;;;;;14.39;100.00;99387.50;5012072;28;20171;-67
2023/08/30 03:09:55;;;;;;;5.80;4.63;;;;;;;14.35;100.00;99378.31;5012054;28;20187;-67
2023/08/30 03:12:20;;;;;;;6.00;4.90;;;;;;;14.42;100.00;99379.47;5000985;28;20319;-68
2023/08/30 03:14:46;;;;;;;5.63;5.13;;;;;;;14.52;100.00;99372.59;5002525;28;20187;-67
2023/08/30 03:17:11;;;;;;;7.57;4.93;;;;;;;14.56;100.00;99373.16;5009185;28;20634;-67
2023/08/30 03:19:36;;;;;;;5.90;5.27;;;;;;;14.49;100.00;99378.03;5011944;28;20179;-67
2023/08/30 03:22:02;;;;;;;5.80;4.80;;;;;;;14.55;100.00;99386.22;5017103;28;20325;-68
2023/08/30 03:24:27;;;;;;;6.50;5.40;;;;;;;14.60;100.00;99386.66;5011944;28;20641;-67
2023/08/30 03:26:52;;;;;;;6.37;4.90;;;;;;;14.59;100.00;99385.03;5011614;28;20198;-68
2023/08/30 03:29:18;;;;;;;6.37;4.83;;;;;;;14.55;100.00;99383.63;5011893;28;20657;-68
2023/08/30 03:31:43;;;;;;;7.40;4.77;;;;;;;14.58;100.00;99383.41;5013217;28;20231;-68
2023/08/30 03:34:09;;;;;;;5.10;4.63;;;;;;;14.50;100.00;99384.84;5026022;28;20182;-68
2023/08/30 03:36:34;;;;;;;5.33;4.83;;;;;;;14.57;100.00;99384.34;5036062;28;20185;-67
2023/08/30 03:38:59;;;;;;;7.30;5.43;;;;;;;14.53;100.00;99370.81;5035737;28;20265;-67
2023/08/30 03:41:24;;;;;;;7.00;5.27;;;;;;;14.50;100.00;99368.50;5024737;28;20221;-67
2023/08/30 03:43:50;;;;;;;6.33;5.70;;;;;;;14.52;100.00;99377.78;5020221;28;20196;-67
2023/08/30 03:46:15;;;;;;;6.80;5.70;;;;;;;14.58;100.00;99368.69;5015553;28;20186;-66
2023/08/30 03:48:40;;;;;;;6.57;6.07;;;;;;;14.44;100.00;99376.78;5015325;28;20521;-67
2023/08/30 03:51:05;;;;;;;6.70;5.93;;;;;;;14.33;100.00;99375.06;5013612;28;20333;-67
2023/08/30 03:53:31;;;;;;;7.83;5.30;;;;;;;14.36;100.00;99377.38;5022591;28;20179;-67
2023/08/30 03:55:56;;;;;;;6.33;5.27;;;;;;;14.21;100.00;99384.63;5015253;28;20197;-67
2023/08/30 03:58:21;;;;;;;7.23;5.83;;;;;;;14.36;100.00;99382.56;5015272;28;20549;-67
2023/08/30 04:00:47;;;;;;;6.80;5.87;;;;;;;14.34;100.00;99376.72;5016338;28;20731;-68
2023/08/30 04:03:15;;;;;;;6.57;5.90;;;;;;;14.39;100.00;99368.53;5044442;28;20323;-67
2023/08/30 04:05:41;;;;;;;7.03;6.40;;;;;;;14.45;100.00;99368.88;5034137;28;20174;-68
2023/08/30 04:08:07;;;;;;;7.60;6.33;;;;;;;14.47;100.00;99372.16;5034922;28;20190;-67
2023/08/30 04:10:39;;;;;;;8.13;7.27;;;;;;;14.40;100.00;99368.44;5024097;28;20272;-67
2023/08/30 04:13:06;;;;;;;10.87;7.10;;;;;;;14.39;100.00;99381.47;5025190;28;20191;-72
2023/08/30 04:15:35;;;;;;;7.87;7.07;;;;;;;14.11;100.00;99384.56;5014306;28;20262;-68
2023/08/30 04:18:02;;;;;;;8.67;7.70;;;;;;;14.25;100.00;99378.28;5014797;28;20179;-67
2023/08/30 04:20:27;;;;;;;9.90;6.77;;;;;;;14.26;100.00;99379.09;5007918;28;20286;-67
2023/08/30 04:22:54;;;;;;;7.33;6.73;;;;;;;14.33;100.00;99375.88;5013300;28;20657;-66
2023/08/30 04:25:20;;;;;;;7.20;6.50;;;;;;;14.33;100.00;99375.06;5014022;28;20214;-68
2023/08/30 04:27:45;;;;;;;6.60;6.00;;;;;;;14.32;100.00;99376.81;5014476;28;20309;-67
2023/08/30 04:30:11;;;;;;;7.47;6.77;;;;;;;14.26;100.00;99369.56;5006903;28;20650;-68
2023/08/30 04:32:36;;;;;;;7.37;6.70;;;;;;;14.22;100.00;99373.34;5047963;28;20225;-71
2023/08/30 04:35:02;;;;;;;6.70;6.10;;;;;;;14.22;100.00;99368.16;5033734;28;20189;-71
2023/08/30 04:37:31;;;;;;;7.90;7.03;;;;;;;14.18;100.00;99372.78;5034350;28;20232;-70
2023/08/30 04:39:57;;;;;;;8.37;7.60;;;;;;;14.10;100.00;99371.75;5033888;28;20182;-72
2023/08/30 04:42:22;;;;;;;8.00;7.30;;;;;;;14.03;100.00;99380.00;5020239;28;20573;-67
2023/08/30 04:44:47;;;;;;;9.90;7.63;;;;;;;14.06;100.00;99378.13;5013701;28;20314;-67
2023/08/30 04:47:12;;;;;;;8.50;7.50;;;;;;;14.04;100.00;99376.47;5014255;28;20544;-69
2023/08/30 04:49:38;;;;;;;9.17;6.90;;;;;;;14.04;100.00;99366.13;5014047;28;20191;-68
2023/08/30 04:52:04;;;;;;;9.57;7.63;;;;;;;14.02;100.00;99372.38;5015852;28;20225;-68
2023/08/30 04:54:29;;;;;;;8.40;7.57;;;;;;;14.06;100.00;99375.53;5033577;28;20649;-67
2023/08/30 04:56:54;;;;;;;8.70;7.87;;;;;;;14.03;100.00;99371.44;5033567;28;20253;-67
2023/08/30 04:59:20;;;;;;;8.83;8.03;;;;;;;13.96;100.00;99371.09;5033599;28;20213;-67
2023/08/30 05:01:45;;;;;;;9.63;8.10;;;;;;;13.81;100.00;99373.16;5022469;28;20342;-67
2023/08/30 05:04:11;;;;;;;14.17;8.83;;;;;;;13.75;100.00;99367.66;5015620;28;20559;-67
2023/08/30 05:06:36;;;;;;;8.97;8.13;;;;;;;13.79;100.00;99371.63;5013706;28;20178;-68
2023/08/30 05:09:02;;;;;;;9.13;8.33;;;;;;;13.86;100.00;99375.38;5014169;28;20183;-68
2023/08/30 05:11:27;;;;;;;9.20;8.40;;;;;;;13.92;100.00;99374.03;5017322;28;20225;-68
2023/08/30 05:13:53;;;;;;;8.87;7.97;;;;;;;13.95;100.00;99382.38;5024797;28;20186;-68
2023/08/30 05:16:18;;;;;;;9.63;8.20;;;;;;;13.99;100.00;99376.03;5032495;28;20645;-67
2023/08/30 05:18:43;;;;;;;9.30;8.17;;;;;;;13.98;100.00;99363.22;5033361;28;20182;-67
2023/08/30 05:21:08;;;;;;;9.87;7.30;;;;;;;14.04;100.00;99375.66;5022584;28;20256;-67
2023/08/30 05:23:34;;;;;;;7.90;7.13;;;;;;;14.14;100.00;99375.72;5020492;28;20190;-68
2023/08/30 05:25:59;;;;;;;9.87;7.50;;;;;;;14.10;100.00;99375.16;5012934;28;20270;-67
2023/08/30 05:28:24;;;;;;;8.90;7.97;;;;;;;14.16;100.00;99373.84;5013449;28;20209;-68
2023/08/30 05:30:49;;;;;;;10.33;8.07;;;;;;;14.23;100.00;99375.00;5009417;28;20277;-67
2023/08/30 05:33:15;;;;;;;8.90;8.00;;;;;;;14.08;100.00;99379.66;5022729;28;20183;-68
2023/08/30 05:35:41;;;;;;;11.60;7.97;;;;;;;14.05;100.00;99377.28;5011759;28;20190;-67
2023/08/30 05:38:06;;;;;;;9.63;7.90;;;;;;;14.20;100.00;99381.25;5013287;28;20244;-67
2023/08/30 05:40:31;;;;;;;8.73;7.80;;;;;;;14.31;100.00;99379.53;5007102;28;20233;-67
2023/08/30 05:42:56;;;;;;;13.10;8.23;;;;;;;14.42;100.00;99369.13;5024586;28;20190;-68
2023/08/30 05:45:22;;;;;;;8.73;7.83;;;;;;;14.62;100.00;99366.66;5013114;28;20540;-67
2023/08/30 05:47:48;;;;;;;9.80;7.30;;;;;;;14.63;100.00;99370.88;5013148;28;20174;-67
2023/08/30 05:50:13;;;;;;;7.43;6.60;;;;;;;14.74;100.00;99360.47;5006062;28;20194;-67
2023/08/30 05:52:41;;;;;;;8.20;7.17;;;;;;;14.87;100.00;99359.44;5045933;28;20174;-67
2023/08/30 05:55:09;;;;;;;10.17;9.17;;;;;;;14.97;100.00;99361.13;5032363;28;20200;-67
2023/08/30 05:57:34;;;;;;;8.90;7.70;;;;;;;15.03;100.00;99364.16;5031630;28;20593;-67
2023/08/30 06:00:01;;;;;;;8.57;7.47;;;;;;;15.08;100.00;99365.41;5032817;28;20673;-66
2023/08/30 06:02:26;;;;;;;8.30;7.50;;;;;;;15.32;100.00;99365.06;5037481;28;20249;-68
2023/08/30 06:04:52;;;;;;;10.20;7.40;;;;;;;15.56;100.00;99360.50;5032066;28;20621;-67
2023/08/30 06:07:17;;;;;;;7.67;7.07;;;;;;;15.60;100.00;99361.84;5032562;28;20236;-66
2023/08/30 06:09:42;;;;;;;7.63;7.00;;;;;;;15.65;100.00;99363.09;5032415;28;20252;-68
2023/08/30 06:12:08;;;;;;;8.00;6.43;;;;;;;15.62;100.00;99352.97;5021364;28;20228;-67
2023/08/30 06:14:33;;;;;;;7.93;7.13;;;;;;;15.86;100.00;99358.78;5021031;28;20186;-66
2023/08/30 06:16:58;;;;;;;8.73;7.83;;;;;;;15.82;100.00;99359.03;5030982;28;20264;-66
2023/08/30 06:19:24;;;;;;;10.63;7.60;;;;;;;16.17;100.00;99351.66;5032403;28;20193;-67
2023/08/30 06:21:49;;;;;;;7.90;7.10;;;;;;;16.29;100.00;99354.94;5020620;28;20329;-67
2023/08/30 06:24:14;;;;;;;8.23;7.50;;;;;;;16.24;100.00;99354.53;5013925;28;20603;-67
2023/08/30 06:26:39;;;;;;;10.90;7.57;;;;;;;16.56;100.00;99351.59;5012229;28;20193;-67
2023/08/30 06:29:04;;;;;;;13.63;7.90;;;;;;;16.68;100.00;99352.22;5012735;28;20190;-67
2023/08/30 06:31:31;;;;;;;8.70;7.40;;;;;;;16.88;100.00;99354.75;5024282;28;20617;-68
2023/08/30 06:33:57;;;;;;;9.07;7.10;;;;;;;17.03;100.00;99355.13;5024758;28;20742;-68
2023/08/30 06:36:23;;;;;;;7.93;7.27;;;;;;;17.08;100.00;99358.97;5031541;28;20193;-68
2023/08/30 06:38:48;;;;;;;8.27;6.67;;;;;;;17.20;100.00;99369.97;5031907;28;20178;-62
2023/08/30 06:41:13;;;;;;;8.33;7.53;;;;;;;17.22;100.00;99369.84;5019439;28;20241;-66
2023/08/30 06:43:39;;;;;;;11.00;7.77;;;;;;;17.47;100.00;99370.13;5020084;28;20179;-68
2023/08/30 06:46:04;;;;;;;8.73;7.83;;;;;;;17.51;100.00;99369.66;5012813;28;20587;-68
2023/08/30 06:48:29;;;;;;;10.10;8.13;;;;;;;17.94;100.00;99366.50;5011964;28;20189;-68
2023/08/30 06:50:58;;;;;;;8.57;7.47;;;;;;;18.25;100.00;99358.34;5009365;28;20313;-69
2023/08/30 06:53:23;;;;;;;7.87;6.97;;;;;;;18.69;100.00;99358.25;5012267;28;20171;-68
2023/08/30 06:56:00;;;;;;;9.23;7.47;;;;;;;18.90;100.00;99354.47;5009833;28;20179;-69
2023/08/30 06:58:25;;;;;;;23.80;7.23;;;;;;;18.93;100.00;99354.16;5010930;28;20212;-69
2023/08/30 07:00:51;;;;;;;7.53;6.83;;;;;;;19.10;100.00;99353.28;5003291;28;20332;-68
2023/08/30 07:03:16;;;;;;;7.07;6.30;;;;;;;19.76;100.00;99350.84;5023141;28;20190;-70
2023/08/30 07:05:43;;;;;;;7.07;6.37;;;;;;;20.01;100.00;99358.72;5013003;28;20903;-69
2023/08/30 07:08:08;;;;;;;7.17;6.50;;;;;;;20.48;100.00;99357.19;5013982;28;20232;-68
2023/08/30 07:10:34;;;;;;;6.90;6.30;;;;;;;20.70;100.00;99357.47;5004592;28;20241;-68
2023/08/30 07:13:00;;;;;;;6.93;5.87;;;;;;;20.50;100.00;99354.41;5023169;28;20186;-69
2023/08/30 07:15:25;;;;;;;6.70;5.90;;;;;;;20.33;100.00;99357.06;5006073;28;20339;-68
2023/08/30 07:17:51;;;;;;;6.77;6.07;;;;;;;20.91;100.00;99352.53;5004437;28;20691;-68
2023/08/30 07:20:16;;;;;;;6.67;6.07;;;;;;;20.88;100.00;99352.84;5003995;28;20178;-68
2023/08/30 07:22:42;;;;;;;10.53;5.40;;;;;;;21.08;100.00;99348.03;5024617;28;20313;-68
2023/08/30 07:25:09;;;;;;;7.40;5.03;;;;;;;21.00;100.00;99342.03;5011381;28;20191;-68
2023/08/30 07:27:35;;;;;;;6.20;5.60;;;;;;;21.39;100.00;99336.75;5011927;28;20229;-68
2023/08/30 07:30:00;;;;;;;6.30;5.43;;;;;;;21.21;100.00;99341.44;5008778;28;20233;-68
2023/08/30 07:32:25;;;;;;;6.13;5.63;;;;;;;21.83;100.00;99342.38;4995199;28;20221;-67
2023/08/30 07:34:50;;;;;;;6.73;5.50;;;;;;;21.72;100.00;99349.66;5012052;28;20541;-67
2023/08/30 07:37:20;;;;;;;5.33;4.83;;;;;;;21.73;100.00;99345.25;5012770;28;20190;-68
2023/08/30 07:39:45;;;;;;;6.17;5.57;;;;;;;22.09;100.00;99342.84;5013104;28;20761;-67
2023/08/30 07:42:10;;;;;;;5.73;5.23;;;;;;;22.16;100.00;99352.59;5036420;28;20236;-68
2023/08/30 07:44:36;;;;;;;6.20;5.70;;;;;;;22.13;100.00;99342.47;5032915;28;20196;-69
2023/08/30 07:47:01;;;;;;;5.93;5.43;;;;;;;22.22;100.00;99344.84;5031749;28;20175;-69
2023/08/30 07:49:26;;;;;;;6.33;5.83;;;;;;;22.13;100.00;99343.28;5033143;28;20569;-69
2023/08/30 07:51:51;;;;;;;8.10;5.87;;;;;;;22.47;100.00;99347.25;5012428;28;20252;-67
2023/08/30 07:54:17;;;;;;;6.53;5.40;;;;;;;22.73;100.00;99344.16;5009938;28;20195;-66
2023/08/30 07:56:42;;;;;;;6.30;5.77;;;;;;;22.54;100.00;99340.28;5012730;28;20654;-68
2023/08/30 07:59:07;;;;;;;6.23;5.70;;;;;;;21.96;100.00;99349.66;5013759;28;20217;-70
2023/08/30 08:01:33;;;;;;;5.67;5.17;;;;;;;21.90;100.00;99348.56;5015111;28;20229;-70
2023/08/30 08:03:58;;;;;;;6.10;5.50;;;;;;;21.83;100.00;99351.06;5016951;28;20175;-70
2023/08/30 08:06:23;;;;;;;6.93;6.23;;;;;;;21.54;100.00;99343.88;5012004;28;20179;-70
2023/08/30 08:08:48;;;;;;;8.17;5.70;;;;;;;21.45;100.00;99340.50;5012824;28;20273;-70
2023/08/30 08:11:14;;;;;;;6.43;5.93;;;;;;;20.91;100.00;99343.88;5014822;28;20303;-70
2023/08/30 08:13:39;;;;;;;6.23;5.63;;;;;;;20.79;100.00;99349.47;5021810;28;20179;-69
2023/08/30 08:16:04;;;;;;;6.43;5.93;;;;;;;20.77;100.00;99353.22;5028896;28;20182;-68
2023/08/30 08:18:29;;;;;;;6.47;5.77;;;;;;;20.95;100.00;99350.41;5031348;28;20189;-68
2023/08/30 08:20:55;;;;;;;6.23;5.53;;;;;;;20.94;100.00;99354.81;5021802;28;20270;-68
2023/08/30 08:23:20;;;;;;;5.97;5.23;;;;;;;21.18;100.00;99357.47;5023342;28;20186;-68
2023/08/30 08:25:46;;;;;;;5.53;5.00;;;;;;;21.40;100.00;99351.47;5010360;28;20219;-67
2023/08/30 08:28:11;;;;;;;5.47;4.87;;;;;;;21.93;100.00;99356.88;5009163;28;20191;-68
2023/08/30 08:30:36;;;;;;;4.77;4.33;;;;;;;22.06;100.00;99360.69;5014147;28;20263;-68
2023/08/30 08:33:02;;;;;;;6.33;4.77;;;;;;;22.28;100.00;99361.66;5033733;28;20638;-68
2023/08/30 08:35:27;;;;;;;5.10;4.60;;;;;;;22.13;100.00;99356.38;5035029;28;20248;-68
2023/08/30 08:37:52;;;;;;;6.57;4.63;;;;;;;21.87;100.00;99360.19;5035256;28;20664;-70
2023/08/30 08:40:18;;;;;;;7.23;5.20;;;;;;;21.36;100.00;99362.44;5023507;28;20181;-67
2023/08/30 08:42:43;;;;;;;5.27;4.77;;;;;;;21.81;100.00;99362.72;5028538;28;20182;-67
2023/08/30 08:45:13;;;;;;;5.37;4.87;;;;;;;21.79;100.00;99362.06;5012266;28;20795;-66
2023/08/30 08:47:39;;;;;;;5.97;5.47;;;;;;;20.74;100.00;99364.84;5009844;28;20175;-69
2023/08/30 08:50:05;;;;;;;6.37;5.67;;;;;;;20.31;100.00;99361.63;5001570;28;20202;-69
2023/08/30 08:52:30;;;;;;;6.40;5.90;;;;;;;20.92;100.00;99358.56;5045955;28;20178;-67
2023/08/30 08:54:56;;;;;;;7.27;5.43;;;;;;;21.59;100.00;99357.28;5034808;28;20174;-68
2023/08/30 08:57:22;;;;;;;5.90;5.37;;;;;;;22.02;100.00;99360.25;5025980;28;20211;-70
2023/08/30 08:59:47;;;;;;;5.70;5.20;;;;;;;23.25;100.00;99353.91;5035317;28;20220;-68
2023/08/30 09:02:14;;;;;;;5.77;4.60;;;;;;;24.56;90.04;99353.66;5020686;28;20596;-69
2023/08/30 09:04:40;;;;;;;4.70;4.30;;;;;;;25.69;80.19;99357.75;5015619;28;20671;-70
2023/08/30 09:07:06;;;;;;;4.20;3.90;;;;;;;26.32;68.34;99361.84;5011059;28;20273;-68
2023/08/30 09:09:33;;;;;;;4.60;4.20;;;;;;;26.83;65.84;99364.75;5014325;28;20557;-70
2023/08/30 09:11:58;;;;;;;5.07;4.68;;;;;;;27.72;58.66;99356.22;5034397;28;20253;-69
2023/08/30 09:14:23;;;;;;;4.70;4.30;;;;;;;28.33;56.20;99365.25;5031792;28;20193;-68
2023/08/30 09:16:56;;;;;;;5.47;4.50;;;;;;;28.81;51.71;99361.13;5034665;28;20562;-66
2023/08/30 09:19:22;;;;;;;5.72;5.22;;;;;;;27.75;59.51;99353.94;5035090;28;20281;-68
2023/08/30 09:21:52;;;;;;;4.93;4.43;;;;;;;27.66;65.67;99349.94;5018545;28;20234;-68
2023/08/30 09:24:17;;;;;;;4.40;4.00;;;;;;;28.15;56.36;99343.06;5014055;28;20268;-67
2023/08/30 09:26:49;;;;;;;4.43;4.03;;;;;;;28.06;55.44;99330.34;5012980;28;20258;-68
2023/08/30 09:29:17;;;;;;;4.75;3.85;;;;;;;30.02;49.91;99335.59;5000705;28;20186;-67
2023/08/30 09:31:42;;;;;;;4.00;3.63;;;;;;;30.86;43.74;99332.63;5002129;28;20357;-67
2023/08/30 09:34:07;;;;;;;6.68;4.20;;;;;;;30.75;45.67;99342.25;5012632;28;20269;-70
2023/08/30 09:36:39;;;;;;;4.78;4.38;;;;;;;31.07;43.67;99333.03;5011489;28;20521;-67
2023/08/30 09:39:05;;;;;;;3.80;3.50;;;;;;;31.28;42.11;99334.19;5013388;28;20280;-68
2023/08/30 09:41:32;;;;;;;6.95;4.20;;;;;;;30.13;46.75;99323.38;5016278;28;20341;-69
2023/08/30 09:43:59;;;;;;;5.88;4.43;;;;;;;29.96;45.29;99318.78;5032744;28;20186;-67
2023/08/30 09:46:25;;;;;;;5.63;3.92;;;;;;;29.60;45.93;99313.44;5033315;28;20256;-68
2023/08/30 09:48:50;;;;;;;5.88;3.63;;;;;;;29.05;46.07;99310.94;5033127;28;20217;-71
2023/08/30 09:51:18;;;;;;;4.25;3.85;;;;;;;31.32;43.48;99323.91;5021172;28;20253;-69
2023/08/30 09:53:47;;;;;;;11.43;3.85;;;;;;;31.13;42.02;99323.31;5014064;28;20202;-70
2023/08/30 09:56:14;;;;;;;4.85;4.45;;;;;;;31.83;39.15;99313.28;5010982;28;20178;-69
2023/08/30 09:58:40;;;;;;;5.53;4.13;;;;;;;31.52;37.93;99305.66;5014717;28;20202;-68
2023/08/30 10:01:07;;;;;;;5.55;3.17;;;;;;;32.04;38.88;99303.78;5020388;28;20229;-68
2023/08/30 10:03:34;;;;;;;4.43;3.85;;;;;;;30.70;40.04;99306.81;5033637;28;20240;-67
2023/08/30 10:06:02;;;;;;;5.63;5.03;;;;;;;26.08;58.96;99300.81;5033413;28;20235;-68
2023/08/30 10:08:31;;;;;;;5.03;4.15;;;;;;;26.88;58.81;99297.16;5034080;28;20254;-69
2023/08/30 10:10:58;;;;;;;3.33;3.05;;;;;;;27.48;55.66;99285.47;5025423;28;20236;-68
2023/08/30 10:13:24;;;;;;;3.55;3.22;;;;;;;29.36;46.25;99283.44;5041230;28;20178;-68
2023/08/30 10:15:56;;;;;;;5.30;3.47;;;;;;;28.85;47.43;99282.91;5033966;28;20186;-69
2023/08/30 10:18:26;;;;;;;5.50;4.07;;;;;;;30.16;43.72;99280.50;5033020;28;20313;-69
2023/08/30 10:20:55;;;;;;;4.30;3.35;;;;;;;29.99;42.67;99283.06;5025103;28;20320;-70
2023/08/30 10:23:21;;;;;;;3.40;3.10;;;;;;;29.60;45.42;99291.44;5032179;28;20170;-69
2023/08/30 10:25:49;;;;;;;3.35;3.15;;;;;;;29.22;47.26;99277.50;5029247;28;20264;-71
2023/08/30 10:28:16;;;;;;;2.97;2.78;;;;;;;28.63;44.31;99283.34;5032634;28;20193;-71
2023/08/30 10:30:41;;;;;;;4.75;2.78;;;;;;;28.37;46.99;99276.56;5008387;28;20226;-71
2023/08/30 10:33:14;;;;;;;3.58;2.85;;;;;;;29.26;42.81;99259.31;5023667;28;20195;-68
2023/08/30 10:35:49;;;;;;;3.95;2.92;;;;;;;29.14;41.77;99265.41;5010899;28;20195;-67
2023/08/30 10:38:26;;;;;;;3.08;2.85;;;;;;;27.55;47.24;99261.66;5009343;28;20190;-69
2023/08/30 10:40:52;;;;;;;3.03;2.78;;;;;;;26.10;54.35;99267.16;5008712;28;20229;-70
2023/08/30 10:43:29;;;;;;;4.20;2.50;;;;;;;26.03;54.77;99260.28;5012188;28;20561;-71
2023/08/30 10:46:00;;;;;;;5.00;3.30;;;;;;;25.74;58.97;99265.75;5009662;28;20179;-69
2023/08/30 10:48:34;;;;;;;3.30;2.75;;;;;;;24.96;62.27;99255.75;5013137;28;20627;-68
2023/08/30 10:51:04;;;;;;;3.13;2.75;;;;;;;25.11;67.28;99260.81;5003951;28;20222;-69
2023/08/30 10:53:29;;;;;;;5.00;3.38;;;;;;;24.80;72.73;99255.06;5018026;28;20190;-69
2023/08/30 10:56:10;;;;;;;4.20;3.42;;;;;;;24.16;72.15;99262.25;5011432;28;20198;-70
2023/08/30 10:58:43;;;;;;;3.80;2.85;;;;;;;23.41;77.68;99250.53;5012150;28;20272;-68
2023/08/30 11:01:12;;;;;;;3.80;3.28;;;;;;;23.40;73.24;99244.47;5010495;28;20364;-67
2023/08/30 11:03:38;;;;;;;4.88;2.92;;;;;;;23.64;78.72;99242.44;5018210;28;20246;-67
2023/08/30 11:06:03;;;;;;;4.07;3.50;;;;;;;23.30;78.21;99236.91;5013500;28;20269;-66
2023/08/30 11:08:29;;;;;;;8.23;3.65;;;;;;;23.54;76.02;99237.50;5011425;28;20178;-68
2023/08/30 11:11:08;;;;;;;3.95;3.55;;;;;;;23.89;71.73;99232.34;5008524;28;20240;-67
2023/08/30 11:13:33;;;;;;;5.22;3.72;;;;;;;23.87;71.38;99226.47;5018523;28;20281;-66
2023/08/30 11:16:03;;;;;;;3.92;3.63;;;;;;;23.62;74.93;99236.59;5012119;28;20706;-67
2023/08/30 11:18:30;;;;;;;4.07;3.72;;;;;;;23.74;82.99;99235.06;5013392;28;20187;-67
2023/08/30 11:20:59;;;;;;;5.80;3.58;;;;;;;23.49;76.53;99232.84;5011465;28;20323;-67
2023/08/30 11:23:25;;;;;;;4.05;3.72;;;;;;;23.22;78.03;99237.06;5040236;28;20197;-67